sensor_id;sensor_type;location;lat;lon;timestamp;P1;durP1;ratioP1;P2;durP2;ratioP2
60426;SDS011;46274;47.168;27.604;2022-09-09T00:05:21;18.67;;;7.60;;
60426;SDS011;46274;47.168;27.604;2022-09-09T00:11:24;23.63;;;9.33;;
60426;SDS011;46274;47.168;27.604;2022-09-09T00:23:55;21.37;;;7.30;;
60426;SDS011;46274;47.168;27.604;2022-09-09T00:29:58;17.30;;;7.33;;
60426;SDS011;46274;47.168;27.604;2022-09-09T00:36:09;14.53;;;7.90;;
60426;SDS011;46274;47.168;27.604;2022-09-09T00:42:18;14.07;;;8.33;;
60426;SDS011;46274;47.168;27.604;2022-09-09T00:48:28;19.87;;;8.53;;
60426;SDS011;46274;47.168;27.604;2022-09-09T01:00:51;16.37;;;8.43;;
60426;SDS011;46274;47.168;27.604;2022-09-09T01:07:04;17.60;;;8.37;;
60426;SDS011;46274;47.168;27.604;2022-09-09T01:13:22;17.77;;;7.97;;
60426;SDS011;46274;47.168;27.604;2022-09-09T01:38:43;13.63;;;7.60;;
60426;SDS011;46274;47.168;27.604;2022-09-09T01:44:45;23.67;;;8.33;;
60426;SDS011;46274;47.168;27.604;2022-09-09T01:50:47;18.27;;;8.57;;
60426;SDS011;46274;47.168;27.604;2022-09-09T02:03:28;19.60;;;9.27;;
60426;SDS011;46274;47.168;27.604;2022-09-09T02:09:30;17.27;;;8.23;;
60426;SDS011;46274;47.168;27.604;2022-09-09T02:15:32;16.43;;;8.40;;
60426;SDS011;46274;47.168;27.604;2022-09-09T02:21:41;19.27;;;9.33;;
60426;SDS011;46274;47.168;27.604;2022-09-09T02:27:45;22.97;;;9.17;;
60426;SDS011;46274;47.168;27.604;2022-09-09T02:33:59;22.53;;;9.53;;
60426;SDS011;46274;47.168;27.604;2022-09-09T02:40:04;20.83;;;9.77;;
60426;SDS011;46274;47.168;27.604;2022-09-09T02:46:19;21.30;;;8.70;;
60426;SDS011;46274;47.168;27.604;2022-09-09T02:58:38;16.70;;;8.73;;
60426;SDS011;46274;47.168;27.604;2022-09-09T03:04:41;32.63;;;9.43;;
60426;SDS011;46274;47.168;27.604;2022-09-09T03:10:45;19.77;;;9.43;;
60426;SDS011;46274;47.168;27.604;2022-09-09T03:16:47;26.47;;;10.67;;
60426;SDS011;46274;47.168;27.604;2022-09-09T03:22:49;24.07;;;10.23;;
60426;SDS011;46274;47.168;27.604;2022-09-09T03:28:57;21.60;;;9.87;;
60426;SDS011;46274;47.168;27.604;2022-09-09T03:35:27;18.30;;;8.93;;
60426;SDS011;46274;47.168;27.604;2022-09-09T03:41:31;19.53;;;9.33;;
60426;SDS011;46274;47.168;27.604;2022-09-09T03:47:52;24.43;;;10.03;;
60426;SDS011;46274;47.168;27.604;2022-09-09T03:54:00;24.73;;;10.37;;
60426;SDS011;46274;47.168;27.604;2022-09-09T04:00:13;41.63;;;9.70;;
60426;SDS011;46274;47.168;27.604;2022-09-09T04:06:33;27.07;;;10.73;;
60426;SDS011;46274;47.168;27.604;2022-09-09T04:12:48;26.53;;;10.17;;
60426;SDS011;46274;47.168;27.604;2022-09-09T04:18:56;32.10;;;11.13;;
60426;SDS011;46274;47.168;27.604;2022-09-09T04:25:13;28.30;;;10.73;;
60426;SDS011;46274;47.168;27.604;2022-09-09T04:31:28;25.07;;;9.97;;
60426;SDS011;46274;47.168;27.604;2022-09-09T04:37:37;22.40;;;9.20;;
60426;SDS011;46274;47.168;27.604;2022-09-09T04:43:39;24.53;;;9.40;;
60426;SDS011;46274;47.168;27.604;2022-09-09T04:49:41;17.57;;;9.80;;
60426;SDS011;46274;47.168;27.604;2022-09-09T04:55:42;35.70;;;11.27;;
60426;SDS011;46274;47.168;27.604;2022-09-09T05:01:44;23.97;;;8.73;;
60426;SDS011;46274;47.168;27.604;2022-09-09T05:07:47;24.10;;;10.10;;
60426;SDS011;46274;47.168;27.604;2022-09-09T05:13:54;24.13;;;9.87;;
60426;SDS011;46274;47.168;27.604;2022-09-09T05:19:56;26.50;;;9.50;;
60426;SDS011;46274;47.168;27.604;2022-09-09T05:25:58;21.30;;;10.10;;
60426;SDS011;46274;47.168;27.604;2022-09-09T05:32:00;17.67;;;9.37;;
60426;SDS011;46274;47.168;27.604;2022-09-09T05:38:02;21.90;;;9.93;;
60426;SDS011;46274;47.168;27.604;2022-09-09T05:58:57;17.80;;;9.37;;
60426;SDS011;46274;47.168;27.604;2022-09-09T06:05:01;26.70;;;9.67;;
60426;SDS011;46274;47.168;27.604;2022-09-09T06:11:03;29.03;;;9.63;;
60426;SDS011;46274;47.168;27.604;2022-09-09T06:17:09;22.57;;;9.50;;
60426;SDS011;46274;47.168;27.604;2022-09-09T06:23:11;27.87;;;13.73;;
60426;SDS011;46274;47.168;27.604;2022-09-09T06:29:16;48.93;;;19.97;;
60426;SDS011;46274;47.168;27.604;2022-09-09T06:35:18;30.10;;;12.47;;
60426;SDS011;46274;47.168;27.604;2022-09-09T06:41:20;30.27;;;12.00;;
60426;SDS011;46274;47.168;27.604;2022-09-09T06:47:23;35.33;;;10.87;;
60426;SDS011;46274;47.168;27.604;2022-09-09T06:53:26;24.70;;;11.43;;
60426;SDS011;46274;47.168;27.604;2022-09-09T06:59:28;38.13;;;11.80;;
60426;SDS011;46274;47.168;27.604;2022-09-09T07:05:32;39.10;;;13.67;;
60426;SDS011;46274;47.168;27.604;2022-09-09T07:11:37;29.23;;;12.93;;
60426;SDS011;46274;47.168;27.604;2022-09-09T07:17:44;26.27;;;12.00;;
60426;SDS011;46274;47.168;27.604;2022-09-09T07:23:46;31.43;;;13.33;;
60426;SDS011;46274;47.168;27.604;2022-09-09T07:29:48;26.73;;;12.30;;
60426;SDS011;46274;47.168;27.604;2022-09-09T07:35:50;41.20;;;17.10;;
60426;SDS011;46274;47.168;27.604;2022-09-09T07:41:52;69.53;;;25.73;;
60426;SDS011;46274;47.168;27.604;2022-09-09T07:47:55;60.20;;;23.83;;
60426;SDS011;46274;47.168;27.604;2022-09-09T07:54:05;55.73;;;26.20;;
60426;SDS011;46274;47.168;27.604;2022-09-09T08:00:10;36.50;;;15.10;;
60426;SDS011;46274;47.168;27.604;2022-09-09T08:06:13;35.80;;;13.00;;
60426;SDS011;46274;47.168;27.604;2022-09-09T08:12:15;27.00;;;12.53;;
60426;SDS011;46274;47.168;27.604;2022-09-09T08:18:17;27.90;;;14.07;;
60426;SDS011;46274;47.168;27.604;2022-09-09T08:24:19;30.70;;;13.47;;
60426;SDS011;46274;47.168;27.604;2022-09-09T08:30:21;40.67;;;12.83;;
60426;SDS011;46274;47.168;27.604;2022-09-09T08:36:24;37.43;;;12.67;;
60426;SDS011;46274;47.168;27.604;2022-09-09T09:08:38;31.67;;;14.60;;
60426;SDS011;46274;47.168;27.604;2022-09-09T09:14:49;25.53;;;15.00;;
60426;SDS011;46274;47.168;27.604;2022-09-09T09:20:58;35.57;;;16.37;;
60426;SDS011;46274;47.168;27.604;2022-09-09T09:27:20;40.93;;;15.80;;
60426;SDS011;46274;47.168;27.604;2022-09-09T09:39:41;37.83;;;16.80;;
60426;SDS011;46274;47.168;27.604;2022-09-09T09:46:04;29.97;;;16.03;;
60426;SDS011;46274;47.168;27.604;2022-09-09T09:52:20;37.90;;;17.83;;
60426;SDS011;46274;47.168;27.604;2022-09-09T09:58:27;33.53;;;17.97;;
60426;SDS011;46274;47.168;27.604;2022-09-09T10:04:47;32.80;;;18.57;;
60426;SDS011;46274;47.168;27.604;2022-09-09T10:30:26;40.67;;;17.37;;
60426;SDS011;46274;47.168;27.604;2022-09-09T10:36:38;32.10;;;16.80;;
60426;SDS011;46274;47.168;27.604;2022-09-09T10:42:47;29.07;;;15.40;;
60426;SDS011;46274;47.168;27.604;2022-09-09T10:55:10;29.80;;;17.10;;
60426;SDS011;46274;47.168;27.604;2022-09-09T11:08:27;28.73;;;18.37;;
60426;SDS011;46274;47.168;27.604;2022-09-09T11:14:45;31.07;;;17.43;;
60426;SDS011;46274;47.168;27.604;2022-09-09T11:20:59;32.90;;;19.53;;
60426;SDS011;46274;47.168;27.604;2022-09-09T11:27:15;28.73;;;18.57;;
60426;SDS011;46274;47.168;27.604;2022-09-09T11:46:31;31.43;;;18.63;;
60426;SDS011;46274;47.168;27.604;2022-09-09T11:52:37;39.10;;;20.97;;
60426;SDS011;46274;47.168;27.604;2022-09-09T11:58:54;31.20;;;17.13;;
60426;SDS011;46274;47.168;27.604;2022-09-09T12:05:07;27.73;;;16.87;;
60426;SDS011;46274;47.168;27.604;2022-09-09T12:11:11;35.33;;;17.13;;
60426;SDS011;46274;47.168;27.604;2022-09-09T12:17:25;24.70;;;15.97;;
60426;SDS011;46274;47.168;27.604;2022-09-09T12:29:50;26.20;;;15.45;;
60426;SDS011;46274;47.168;27.604;2022-09-09T12:36:24;26.88;;;15.13;;
60426;SDS011;46274;47.168;27.604;2022-09-09T12:42:32;27.70;;;15.77;;
60426;SDS011;46274;47.168;27.604;2022-09-09T12:48:58;30.10;;;15.52;;
60426;SDS011;46274;47.168;27.604;2022-09-09T12:55:00;30.60;;;15.57;;
60426;SDS011;46274;47.168;27.604;2022-09-09T13:01:05;27.40;;;15.50;;
60426;SDS011;46274;47.168;27.604;2022-09-09T13:07:22;28.27;;;16.17;;
60426;SDS011;46274;47.168;27.604;2022-09-09T13:13:34;24.10;;;16.30;;
60426;SDS011;46274;47.168;27.604;2022-09-09T13:19:45;31.10;;;17.42;;
60426;SDS011;46274;47.168;27.604;2022-09-09T13:25:55;27.20;;;16.38;;
60426;SDS011;46274;47.168;27.604;2022-09-09T13:32:20;28.83;;;17.33;;
60426;SDS011;46274;47.168;27.604;2022-09-09T13:38:22;28.42;;;18.25;;
60426;SDS011;46274;47.168;27.604;2022-09-09T13:44:31;28.95;;;16.42;;
60426;SDS011;46274;47.168;27.604;2022-09-09T13:58:03;31.60;;;16.40;;
60426;SDS011;46274;47.168;27.604;2022-09-09T14:29:43;32.83;;;17.60;;
60426;SDS011;46274;47.168;27.604;2022-09-09T14:42:02;25.45;;;15.93;;
60426;SDS011;46274;47.168;27.604;2022-09-09T14:48:04;25.60;;;15.30;;
60426;SDS011;46274;47.168;27.604;2022-09-09T14:54:06;28.50;;;13.32;;
60426;SDS011;46274;47.168;27.604;2022-09-09T15:00:09;24.15;;;11.27;;
60426;SDS011;46274;47.168;27.604;2022-09-09T15:06:14;19.08;;;11.50;;
60426;SDS011;46274;47.168;27.604;2022-09-09T15:12:18;18.55;;;10.68;;
60426;SDS011;46274;47.168;27.604;2022-09-09T15:18:20;15.63;;;10.55;;
60426;SDS011;46274;47.168;27.604;2022-09-09T15:24:23;15.88;;;10.50;;
60426;SDS011;46274;47.168;27.604;2022-09-09T15:30:24;16.85;;;11.45;;
60426;SDS011;46274;47.168;27.604;2022-09-09T15:36:47;19.53;;;12.10;;
60426;SDS011;46274;47.168;27.604;2022-09-09T15:42:49;21.90;;;11.13;;
60426;SDS011;46274;47.168;27.604;2022-09-09T15:48:58;18.38;;;11.18;;
60426;SDS011;46274;47.168;27.604;2022-09-09T15:55:11;32.90;;;13.55;;
60426;SDS011;46274;47.168;27.604;2022-09-09T16:01:13;22.00;;;11.02;;
60426;SDS011;46274;47.168;27.604;2022-09-09T16:07:16;17.85;;;10.60;;
60426;SDS011;46274;47.168;27.604;2022-09-09T16:13:18;19.97;;;11.13;;
60426;SDS011;46274;47.168;27.604;2022-09-09T16:19:20;15.93;;;10.32;;
60426;SDS011;46274;47.168;27.604;2022-09-09T16:25:22;17.52;;;11.02;;
60426;SDS011;46274;47.168;27.604;2022-09-09T16:31:24;21.88;;;10.95;;
60426;SDS011;46274;47.168;27.604;2022-09-09T16:37:28;19.80;;;10.68;;
60426;SDS011;46274;47.168;27.604;2022-09-09T16:43:31;18.05;;;11.82;;
60426;SDS011;46274;47.168;27.604;2022-09-09T16:49:33;19.67;;;12.30;;
60426;SDS011;46274;47.168;27.604;2022-09-09T16:55:39;23.63;;;13.57;;
60426;SDS011;46274;47.168;27.604;2022-09-09T17:01:43;23.80;;;12.73;;
60426;SDS011;46274;47.168;27.604;2022-09-09T17:07:46;31.03;;;14.70;;
60426;SDS011;46274;47.168;27.604;2022-09-09T17:13:47;25.33;;;15.00;;
60426;SDS011;46274;47.168;27.604;2022-09-09T17:19:49;34.03;;;16.13;;
60426;SDS011;46274;47.168;27.604;2022-09-09T17:25:58;26.93;;;12.93;;
60426;SDS011;46274;47.168;27.604;2022-09-09T17:32:01;20.80;;;12.50;;
60426;SDS011;46274;47.168;27.604;2022-09-09T17:38:04;21.57;;;14.97;;
60426;SDS011;46274;47.168;27.604;2022-09-09T17:44:07;25.40;;;14.00;;
60426;SDS011;46274;47.168;27.604;2022-09-09T17:50:11;30.00;;;14.33;;
60426;SDS011;46274;47.168;27.604;2022-09-09T17:56:14;29.40;;;15.80;;
60426;SDS011;46274;47.168;27.604;2022-09-09T18:02:18;23.10;;;13.80;;
60426;SDS011;46274;47.168;27.604;2022-09-09T18:08:20;23.30;;;15.73;;
60426;SDS011;46274;47.168;27.604;2022-09-09T18:14:24;28.00;;;18.23;;
60426;SDS011;46274;47.168;27.604;2022-09-09T18:20:31;31.63;;;20.07;;
60426;SDS011;46274;47.168;27.604;2022-09-09T18:26:34;28.77;;;19.37;;
60426;SDS011;46274;47.168;27.604;2022-09-09T18:32:39;27.53;;;19.27;;
60426;SDS011;46274;47.168;27.604;2022-09-09T18:38:41;26.67;;;17.93;;
60426;SDS011;46274;47.168;27.604;2022-09-09T18:44:44;24.53;;;16.87;;
60426;SDS011;46274;47.168;27.604;2022-09-09T18:50:45;27.57;;;17.20;;
60426;SDS011;46274;47.168;27.604;2022-09-09T18:56:47;28.67;;;19.57;;
60426;SDS011;46274;47.168;27.604;2022-09-09T19:02:50;24.63;;;17.10;;
60426;SDS011;46274;47.168;27.604;2022-09-09T19:08:53;33.63;;;19.03;;
60426;SDS011;46274;47.168;27.604;2022-09-09T19:15:03;30.37;;;16.93;;
60426;SDS011;46274;47.168;27.604;2022-09-09T19:27:12;34.43;;;20.50;;
60426;SDS011;46274;47.168;27.604;2022-09-09T19:33:14;31.20;;;18.77;;
60426;SDS011;46274;47.168;27.604;2022-09-09T19:39:16;29.93;;;19.03;;
60426;SDS011;46274;47.168;27.604;2022-09-09T19:45:18;33.30;;;20.90;;
60426;SDS011;46274;47.168;27.604;2022-09-09T19:51:21;32.53;;;18.57;;
60426;SDS011;46274;47.168;27.604;2022-09-09T19:57:23;36.50;;;21.27;;
60426;SDS011;46274;47.168;27.604;2022-09-09T20:03:28;36.83;;;21.43;;
60426;SDS011;46274;47.168;27.604;2022-09-09T20:09:30;29.70;;;18.13;;
60426;SDS011;46274;47.168;27.604;2022-09-09T20:15:32;31.70;;;19.47;;
60426;SDS011;46274;47.168;27.604;2022-09-09T20:21:35;47.83;;;20.47;;
60426;SDS011;46274;47.168;27.604;2022-09-09T20:27:41;30.73;;;18.23;;
60426;SDS011;46274;47.168;27.604;2022-09-09T20:33:53;34.23;;;18.20;;
60426;SDS011;46274;47.168;27.604;2022-09-09T20:39:56;25.07;;;18.03;;
60426;SDS011;46274;47.168;27.604;2022-09-09T20:46:02;28.40;;;17.37;;
60426;SDS011;46274;47.168;27.604;2022-09-09T20:52:04;24.37;;;16.93;;
60426;SDS011;46274;47.168;27.604;2022-09-09T20:58:07;27.93;;;17.20;;
60426;SDS011;46274;47.168;27.604;2022-09-09T21:04:09;29.83;;;18.37;;
60426;SDS011;46274;47.168;27.604;2022-09-09T21:10:11;27.07;;;17.80;;
60426;SDS011;46274;47.168;27.604;2022-09-09T21:16:15;27.40;;;17.70;;
60426;SDS011;46274;47.168;27.604;2022-09-09T21:22:21;29.80;;;20.03;;
60426;SDS011;46274;47.168;27.604;2022-09-09T21:28:23;31.97;;;19.13;;
60426;SDS011;46274;47.168;27.604;2022-09-09T21:34:28;25.67;;;18.03;;
60426;SDS011;46274;47.168;27.604;2022-09-09T21:40:30;28.20;;;17.90;;
60426;SDS011;46274;47.168;27.604;2022-09-09T21:46:32;30.03;;;17.77;;
60426;SDS011;46274;47.168;27.604;2022-09-09T21:52:34;26.23;;;17.07;;
60426;SDS011;46274;47.168;27.604;2022-09-09T21:58:37;29.43;;;17.77;;
60426;SDS011;46274;47.168;27.604;2022-09-09T22:04:41;30.83;;;18.87;;
60426;SDS011;46274;47.168;27.604;2022-09-09T22:10:44;35.20;;;21.03;;
60426;SDS011;46274;47.168;27.604;2022-09-09T22:16:46;36.97;;;21.20;;
60426;SDS011;46274;47.168;27.604;2022-09-09T22:22:48;32.63;;;21.63;;
60426;SDS011;46274;47.168;27.604;2022-09-09T22:28:50;39.67;;;21.47;;
60426;SDS011;46274;47.168;27.604;2022-09-09T22:34:54;32.13;;;20.00;;
60426;SDS011;46274;47.168;27.604;2022-09-09T22:40:56;39.47;;;22.43;;
60426;SDS011;46274;47.168;27.604;2022-09-09T22:46:58;43.90;;;24.80;;
60426;SDS011;46274;47.168;27.604;2022-09-09T22:53:02;34.50;;;23.33;;
60426;SDS011;46274;47.168;27.604;2022-09-09T22:59:04;40.40;;;20.10;;
60426;SDS011;46274;47.168;27.604;2022-09-09T23:05:06;36.50;;;20.30;;
60426;SDS011;46274;47.168;27.604;2022-09-09T23:11:09;33.17;;;21.40;;
60426;SDS011;46274;47.168;27.604;2022-09-09T23:17:12;33.53;;;21.90;;
60426;SDS011;46274;47.168;27.604;2022-09-09T23:23:18;35.77;;;22.00;;
60426;SDS011;46274;47.168;27.604;2022-09-09T23:29:20;36.73;;;21.40;;
60426;SDS011;46274;47.168;27.604;2022-09-09T23:35:22;40.20;;;24.03;;
60426;SDS011;46274;47.168;27.604;2022-09-09T23:41:24;40.03;;;20.40;;
60426;SDS011;46274;47.168;27.604;2022-09-09T23:47:27;28.33;;;19.27;;
60426;SDS011;46274;47.168;27.604;2022-09-09T23:53:29;33.33;;;21.17;;
60426;SDS011;46274;47.168;27.604;2022-09-09T23:59:31;43.50;;;23.40;;
